sensor_id;sensor_type;location;lat;lon;timestamp;pressure;altitude;pressure_sealevel;temperature;humidity
71770;BME280;66386;52.122;5.420;2023-04-06T00:00:07;101972.75;;;2.11;74.07
71770;BME280;66386;52.122;5.420;2023-04-06T00:02:36;101976.06;;;2.06;74.28
71770;BME280;66386;52.122;5.420;2023-04-06T00:05:02;101973.47;;;2.03;74.16
71770;BME280;66386;52.122;5.420;2023-04-06T00:07:29;101968.34;;;2.00;74.15
71770;BME280;66386;52.122;5.420;2023-04-06T00:09:56;101966.59;;;1.96;74.34
71770;BME280;66386;52.122;5.420;2023-04-06T00:12:22;101970.75;;;1.92;74.42
71770;BME280;66386;52.122;5.420;2023-04-06T00:14:49;101966.47;;;1.88;74.64
71770;BME280;66386;52.122;5.420;2023-04-06T00:17:15;101963.94;;;1.88;74.91
71770;BME280;66386;52.122;5.420;2023-04-06T00:19:42;101956.28;;;1.87;74.78
71770;BME280;66386;52.122;5.420;2023-04-06T00:22:08;101956.25;;;1.85;74.88
71770;BME280;66386;52.122;5.420;2023-04-06T00:24:34;101958.72;;;1.82;74.98
71770;BME280;66386;52.122;5.420;2023-04-06T00:27:01;101957.06;;;1.81;75.17
71770;BME280;66386;52.122;5.420;2023-04-06T00:29:27;101951.03;;;1.76;75.29
71770;BME280;66386;52.122;5.420;2023-04-06T00:31:54;101950.97;;;1.73;75.38
71770;BME280;66386;52.122;5.420;2023-04-06T00:34:20;101950.06;;;1.69;75.53
71770;BME280;66386;52.122;5.420;2023-04-06T00:36:47;101941.53;;;1.64;75.71
71770;BME280;66386;52.122;5.420;2023-04-06T00:39:13;101941.50;;;1.63;75.92
71770;BME280;66386;52.122;5.420;2023-04-06T00:41:46;101936.41;;;1.61;75.85
71770;BME280;66386;52.122;5.420;2023-04-06T00:44:12;101938.91;;;1.60;76.15
71770;BME280;66386;52.122;5.420;2023-04-06T00:46:39;101932.94;;;1.56;76.07
71770;BME280;66386;52.122;5.420;2023-04-06T00:49:05;101921.03;;;1.52;76.26
71770;BME280;66386;52.122;5.420;2023-04-06T00:51:32;101915.13;;;1.51;76.11
71770;BME280;66386;52.122;5.420;2023-04-06T00:53:59;101921.84;;;1.49;76.26
71770;BME280;66386;52.122;5.420;2023-04-06T00:56:25;101913.31;;;1.46;76.49
71770;BME280;66386;52.122;5.420;2023-04-06T00:58:52;101915.81;;;1.44;76.69
71770;BME280;66386;52.122;5.420;2023-04-06T01:01:19;101914.97;;;1.42;76.41
71770;BME280;66386;52.122;5.420;2023-04-06T01:03:45;101916.69;;;1.43;76.77
71770;BME280;66386;52.122;5.420;2023-04-06T01:06:16;101914.09;;;1.42;76.62
71770;BME280;66386;52.122;5.420;2023-04-06T01:08:42;101916.63;;;1.42;76.77
71770;BME280;66386;52.122;5.420;2023-04-06T01:11:09;101906.47;;;1.42;77.15
71770;BME280;66386;52.122;5.420;2023-04-06T01:13:36;101905.66;;;1.43;77.16
71770;BME280;66386;52.122;5.420;2023-04-06T01:16:03;101900.56;;;1.41;77.37
71770;BME280;66386;52.122;5.420;2023-04-06T01:18:30;101898.06;;;1.43;77.31
71770;BME280;66386;52.122;5.420;2023-04-06T01:20:56;101893.00;;;1.43;77.30
71770;BME280;66386;52.122;5.420;2023-04-06T01:23:23;101891.38;;;1.45;77.45
71770;BME280;66386;52.122;5.420;2023-04-06T01:25:49;101896.47;;;1.46;77.49
71770;BME280;66386;52.122;5.420;2023-04-06T01:28:16;101892.22;;;1.47;77.51
71770;BME280;66386;52.122;5.420;2023-04-06T01:30:42;101892.22;;;1.47;77.65
71770;BME280;66386;52.122;5.420;2023-04-06T01:33:09;101883.81;;;1.48;77.64
71770;BME280;66386;52.122;5.420;2023-04-06T01:35:35;101886.41;;;1.51;77.73
71770;BME280;66386;52.122;5.420;2023-04-06T01:38:02;101880.50;;;1.52;77.79
71770;BME280;66386;52.122;5.420;2023-04-06T01:40:29;101877.16;;;1.54;77.64
71770;BME280;66386;52.122;5.420;2023-04-06T01:42:55;101875.53;;;1.56;77.77
71770;BME280;66386;52.122;5.420;2023-04-06T01:45:21;101876.38;;;1.57;77.90
71770;BME280;66386;52.122;5.420;2023-04-06T01:47:48;101877.25;;;1.61;77.90
71770;BME280;66386;52.122;5.420;2023-04-06T01:50:15;101868.00;;;1.61;78.01
71770;BME280;66386;52.122;5.420;2023-04-06T01:52:41;101869.75;;;1.65;78.17
71770;BME280;66386;52.122;5.420;2023-04-06T01:55:08;101860.47;;;1.66;78.14
71770;BME280;66386;52.122;5.420;2023-04-06T01:57:34;101862.19;;;1.68;78.09
71770;BME280;66386;52.122;5.420;2023-04-06T02:00:01;101858.03;;;1.72;78.27
71770;BME280;66386;52.122;5.420;2023-04-06T02:02:27;101854.66;;;1.73;78.29
71770;BME280;66386;52.122;5.420;2023-04-06T02:04:54;101853.84;;;1.74;78.41
71770;BME280;66386;52.122;5.420;2023-04-06T02:07:21;101851.34;;;1.76;78.53
71770;BME280;66386;52.122;5.420;2023-04-06T02:09:47;101844.56;;;1.76;78.46
71770;BME280;66386;52.122;5.420;2023-04-06T02:12:13;101839.56;;;1.81;78.41
71770;BME280;66386;52.122;5.420;2023-04-06T02:14:40;101842.13;;;1.82;78.44
71770;BME280;66386;52.122;5.420;2023-04-06T02:17:06;101833.69;;;1.82;78.41
71770;BME280;66386;52.122;5.420;2023-04-06T02:19:33;101833.72;;;1.85;78.50
71770;BME280;66386;52.122;5.420;2023-04-06T02:21:59;101830.38;;;1.86;78.55
71770;BME280;66386;52.122;5.420;2023-04-06T02:24:26;101821.97;;;1.88;78.77
71770;BME280;66386;52.122;5.420;2023-04-06T02:26:53;101826.19;;;1.89;78.58
71770;BME280;66386;52.122;5.420;2023-04-06T02:29:19;101822.00;;;1.91;78.58
71770;BME280;66386;52.122;5.420;2023-04-06T02:31:46;101821.19;;;1.94;78.50
71770;BME280;66386;52.122;5.420;2023-04-06T02:34:13;101822.09;;;1.98;78.60
71770;BME280;66386;52.122;5.420;2023-04-06T02:36:45;101823.84;;;2.00;78.51
71770;BME280;66386;52.122;5.420;2023-04-06T02:39:12;101817.88;;;2.00;78.45
71770;BME280;66386;52.122;5.420;2023-04-06T02:41:39;101824.66;;;2.01;78.56
71770;BME280;66386;52.122;5.420;2023-04-06T02:44:07;101817.91;;;2.01;78.50
71770;BME280;66386;52.122;5.420;2023-04-06T02:46:34;101817.94;;;2.04;78.55
71770;BME280;66386;52.122;5.420;2023-04-06T02:49:01;101807.84;;;2.06;78.47
71770;BME280;66386;52.122;5.420;2023-04-06T02:51:27;101801.94;;;2.07;78.37
71770;BME280;66386;52.122;5.420;2023-04-06T02:53:54;101801.09;;;2.08;78.44
71770;BME280;66386;52.122;5.420;2023-04-06T02:56:20;101796.03;;;2.08;78.44
71770;BME280;66386;52.122;5.420;2023-04-06T02:58:47;101800.28;;;2.09;78.55
71770;BME280;66386;52.122;5.420;2023-04-06T03:01:14;101802.84;;;2.11;78.39
71770;BME280;66386;52.122;5.420;2023-04-06T03:03:41;101790.16;;;2.11;78.35
71770;BME280;66386;52.122;5.420;2023-04-06T03:06:08;101787.66;;;2.12;78.34
71770;BME280;66386;52.122;5.420;2023-04-06T03:08:34;101786.78;;;2.13;78.16
71770;BME280;66386;52.122;5.420;2023-04-06T03:11:01;101783.44;;;2.16;78.23
71770;BME280;66386;52.122;5.420;2023-04-06T03:13:27;101786.03;;;2.20;77.74
71770;BME280;66386;52.122;5.420;2023-04-06T03:15:53;101784.41;;;2.22;77.77
71770;BME280;66386;52.122;5.420;2023-04-06T03:18:22;101787.81;;;2.26;77.47
71770;BME280;66386;52.122;5.420;2023-04-06T03:20:49;101786.13;;;2.25;77.60
71770;BME280;66386;52.122;5.420;2023-04-06T03:23:16;101779.34;;;2.24;77.72
71770;BME280;66386;52.122;5.420;2023-04-06T03:25:43;101776.81;;;2.24;77.81
71770;BME280;66386;52.122;5.420;2023-04-06T03:28:09;101780.19;;;2.26;77.74
71770;BME280;66386;52.122;5.420;2023-04-06T03:30:36;101770.94;;;2.28;77.72
71770;BME280;66386;52.122;5.420;2023-04-06T03:33:03;101774.34;;;2.32;77.48
71770;BME280;66386;52.122;5.420;2023-04-06T03:35:29;101775.19;;;2.32;77.38
71770;BME280;66386;52.122;5.420;2023-04-06T03:37:56;101771.84;;;2.33;77.26
71770;BME280;66386;52.122;5.420;2023-04-06T03:40:22;101771.03;;;2.36;77.20
71770;BME280;66386;52.122;5.420;2023-04-06T03:42:49;101767.66;;;2.37;76.97
71770;BME280;66386;52.122;5.420;2023-04-06T03:45:16;101768.50;;;2.37;76.83
71770;BME280;66386;52.122;5.420;2023-04-06T03:47:42;101766.84;;;2.39;76.90
71770;BME280;66386;52.122;5.420;2023-04-06T03:50:09;101761.78;;;2.41;77.05
71770;BME280;66386;52.122;5.420;2023-04-06T03:52:35;101759.22;;;2.39;77.11
71770;BME280;66386;52.122;5.420;2023-04-06T03:55:02;101767.69;;;2.40;77.27
71770;BME280;66386;52.122;5.420;2023-04-06T03:57:29;101753.31;;;2.39;77.13
71770;BME280;66386;52.122;5.420;2023-04-06T03:59:55;101751.59;;;2.39;77.33
71770;BME280;66386;52.122;5.420;2023-04-06T04:02:22;101755.84;;;2.40;76.96
71770;BME280;66386;52.122;5.420;2023-04-06T04:04:48;101756.69;;;2.39;76.85
71770;BME280;66386;52.122;5.420;2023-04-06T04:07:15;101756.69;;;2.39;77.03
71770;BME280;66386;52.122;5.420;2023-04-06T04:09:42;101753.31;;;2.39;76.77
71770;BME280;66386;52.122;5.420;2023-04-06T04:12:08;101744.84;;;2.38;76.82
71770;BME280;66386;52.122;5.420;2023-04-06T04:14:34;101755.81;;;2.37;76.53
71770;BME280;66386;52.122;5.420;2023-04-06T04:17:01;101753.31;;;2.39;76.45
71770;BME280;66386;52.122;5.420;2023-04-06T04:19:27;101747.38;;;2.38;76.44
71770;BME280;66386;52.122;5.420;2023-04-06T04:21:53;101750.75;;;2.37;76.22
71770;BME280;66386;52.122;5.420;2023-04-06T04:24:20;101757.50;;;2.35;75.92
71770;BME280;66386;52.122;5.420;2023-04-06T04:26:46;101749.03;;;2.35;75.90
71770;BME280;66386;52.122;5.420;2023-04-06T04:29:13;101755.81;;;2.36;75.82
71770;BME280;66386;52.122;5.420;2023-04-06T04:31:40;101754.06;;;2.33;75.98
71770;BME280;66386;52.122;5.420;2023-04-06T04:34:06;101748.16;;;2.31;76.10
71770;BME280;66386;52.122;5.420;2023-04-06T04:36:33;101750.66;;;2.30;76.29
71770;BME280;66386;52.122;5.420;2023-04-06T04:38:59;101745.59;;;2.30;76.13
71770;BME280;66386;52.122;5.420;2023-04-06T04:41:27;101748.97;;;2.29;75.81
71770;BME280;66386;52.122;5.420;2023-04-06T04:43:53;101754.03;;;2.29;75.56
71770;BME280;66386;52.122;5.420;2023-04-06T04:46:20;101746.41;;;2.27;75.49
71770;BME280;66386;52.122;5.420;2023-04-06T04:48:46;101752.31;;;2.27;75.30
71770;BME280;66386;52.122;5.420;2023-04-06T04:51:13;101749.75;;;2.26;75.46
71770;BME280;66386;52.122;5.420;2023-04-06T04:53:39;101745.59;;;2.28;75.43
71770;BME280;66386;52.122;5.420;2023-04-06T04:56:06;101745.59;;;2.30;75.23
71770;BME280;66386;52.122;5.420;2023-04-06T04:58:32;101743.91;;;2.30;75.46
71770;BME280;66386;52.122;5.420;2023-04-06T05:00:58;101737.97;;;2.30;75.83
71770;BME280;66386;52.122;5.420;2023-04-06T05:03:26;101741.38;;;2.32;75.86
71770;BME280;66386;52.122;5.420;2023-04-06T05:05:53;101740.56;;;2.33;75.87
71770;BME280;66386;52.122;5.420;2023-04-06T05:08:19;101738.03;;;2.34;76.03
71770;BME280;66386;52.122;5.420;2023-04-06T05:10:46;101738.91;;;2.38;75.99
71770;BME280;66386;52.122;5.420;2023-04-06T05:13:14;101738.13;;;2.43;75.60
71770;BME280;66386;52.122;5.420;2023-04-06T05:15:41;101735.66;;;2.50;75.18
71770;BME280;66386;52.122;5.420;2023-04-06T05:18:08;101732.31;;;2.52;75.24
71770;BME280;66386;52.122;5.420;2023-04-06T05:20:35;101731.50;;;2.56;75.05
71770;BME280;66386;52.122;5.420;2023-04-06T05:23:01;101743.44;;;2.64;75.00
71770;BME280;66386;52.122;5.420;2023-04-06T05:25:28;101727.38;;;2.66;74.99
71770;BME280;66386;52.122;5.420;2023-04-06T05:27:55;101735.03;;;2.71;74.88
71770;BME280;66386;52.122;5.420;2023-04-06T05:30:21;101727.47;;;2.74;75.20
71770;BME280;66386;52.122;5.420;2023-04-06T05:32:48;101734.31;;;2.81;74.94
71770;BME280;66386;52.122;5.420;2023-04-06T05:35:14;101730.13;;;2.86;75.12
71770;BME280;66386;52.122;5.420;2023-04-06T05:37:41;101729.31;;;2.93;74.94
71770;BME280;66386;52.122;5.420;2023-04-06T05:40:08;101729.41;;;3.00;74.83
71770;BME280;66386;52.122;5.420;2023-04-06T05:42:42;101722.66;;;3.03;74.65
71770;BME280;66386;52.122;5.420;2023-04-06T05:45:11;101728.63;;;3.08;74.47
71770;BME280;66386;52.122;5.420;2023-04-06T05:47:43;101720.19;;;3.12;74.18
71770;BME280;66386;52.122;5.420;2023-04-06T05:50:13;101723.63;;;3.18;73.93
71770;BME280;66386;52.122;5.420;2023-04-06T05:52:40;101715.19;;;3.23;74.14
71770;BME280;66386;52.122;5.420;2023-04-06T05:55:09;101721.13;;;3.27;74.14
71770;BME280;66386;52.122;5.420;2023-04-06T05:57:36;101726.25;;;3.30;74.08
71770;BME280;66386;52.122;5.420;2023-04-06T06:00:05;101726.31;;;3.35;74.00
71770;BME280;66386;52.122;5.420;2023-04-06T06:02:33;101719.53;;;3.40;73.98
71770;BME280;66386;52.122;5.420;2023-04-06T06:04:59;101721.28;;;3.44;73.89
71770;BME280;66386;52.122;5.420;2023-04-06T06:07:26;101713.66;;;3.47;74.11
71770;BME280;66386;52.122;5.420;2023-04-06T06:09:52;101718.78;;;3.50;73.99
71770;BME280;66386;52.122;5.420;2023-04-06T06:12:19;101709.47;;;3.52;74.10
71770;BME280;66386;52.122;5.420;2023-04-06T06:14:45;101723.94;;;3.58;74.24
71770;BME280;66386;52.122;5.420;2023-04-06T06:17:12;101720.53;;;3.62;74.09
71770;BME280;66386;52.122;5.420;2023-04-06T06:19:38;101712.09;;;3.66;73.97
71770;BME280;66386;52.122;5.420;2023-04-06T06:22:04;101717.19;;;3.72;74.15
71770;BME280;66386;52.122;5.420;2023-04-06T06:24:31;101708.75;;;3.76;73.93
71770;BME280;66386;52.122;5.420;2023-04-06T06:26:57;101711.31;;;3.82;73.57
71770;BME280;66386;52.122;5.420;2023-04-06T06:29:24;101715.59;;;3.87;73.67
71770;BME280;66386;52.122;5.420;2023-04-06T06:31:51;101710.53;;;3.91;73.53
71770;BME280;66386;52.122;5.420;2023-04-06T06:34:17;101714.78;;;3.97;73.42
71770;BME280;66386;52.122;5.420;2023-04-06T06:36:44;101714.84;;;4.05;73.21
71770;BME280;66386;52.122;5.420;2023-04-06T06:39:13;101712.31;;;4.12;73.05
71770;BME280;66386;52.122;5.420;2023-04-06T06:41:40;101710.69;;;4.22;72.84
71770;BME280;66386;52.122;5.420;2023-04-06T06:44:07;101711.53;;;4.33;72.56
71770;BME280;66386;52.122;5.420;2023-04-06T06:46:33;101713.31;;;4.48;72.93
71770;BME280;66386;52.122;5.420;2023-04-06T06:49:00;101709.94;;;4.63;72.46
71770;BME280;66386;52.122;5.420;2023-04-06T06:51:26;101706.56;;;4.77;72.15
71770;BME280;66386;52.122;5.420;2023-04-06T06:53:53;101709.97;;;4.93;71.68
71770;BME280;66386;52.122;5.420;2023-04-06T06:56:19;101715.94;;;5.05;71.62
71770;BME280;66386;52.122;5.420;2023-04-06T06:58:46;101714.22;;;5.18;71.56
71770;BME280;66386;52.122;5.420;2023-04-06T07:01:13;101714.19;;;5.35;71.55
71770;BME280;66386;52.122;5.420;2023-04-06T07:03:39;101713.31;;;5.49;70.56
71770;BME280;66386;52.122;5.420;2023-04-06T07:06:06;101711.63;;;5.52;69.69
71770;BME280;66386;52.122;5.420;2023-04-06T07:08:32;101708.22;;;5.56;69.69
71770;BME280;66386;52.122;5.420;2023-04-06T07:10:59;101705.66;;;5.59;69.71
71770;BME280;66386;52.122;5.420;2023-04-06T07:13:25;101697.16;;;5.60;68.75
71770;BME280;66386;52.122;5.420;2023-04-06T07:15:53;101705.66;;;5.61;68.19
71770;BME280;66386;52.122;5.420;2023-04-06T07:18:20;101709.06;;;5.60;67.77
71770;BME280;66386;52.122;5.420;2023-04-06T07:20:48;101693.78;;;5.57;66.87
71770;BME280;66386;52.122;5.420;2023-04-06T07:23:14;101699.72;;;5.57;67.01
71770;BME280;66386;52.122;5.420;2023-04-06T07:25:41;101698.88;;;5.57;67.53
71770;BME280;66386;52.122;5.420;2023-04-06T07:28:08;101690.38;;;5.56;67.61
71770;BME280;66386;52.122;5.420;2023-04-06T07:30:38;101699.72;;;5.57;67.37
71770;BME280;66386;52.122;5.420;2023-04-06T07:33:04;101692.94;;;5.58;67.51
71770;BME280;66386;52.122;5.420;2023-04-06T07:35:31;101698.88;;;5.58;67.66
71770;BME280;66386;52.122;5.420;2023-04-06T07:37:58;101700.56;;;5.61;66.98
71770;BME280;66386;52.122;5.420;2023-04-06T07:40:24;101694.63;;;5.64;67.15
71770;BME280;66386;52.122;5.420;2023-04-06T07:42:52;101693.72;;;5.68;67.18
71770;BME280;66386;52.122;5.420;2023-04-06T07:45:21;101697.97;;;5.72;67.17
71770;BME280;66386;52.122;5.420;2023-04-06T07:47:48;101693.72;;;5.77;67.18
71770;BME280;66386;52.122;5.420;2023-04-06T07:50:14;101692.84;;;5.89;67.45
71770;BME280;66386;52.122;5.420;2023-04-06T07:52:41;101689.41;;;5.93;67.16
71770;BME280;66386;52.122;5.420;2023-04-06T07:55:08;101693.69;;;5.99;66.74
71770;BME280;66386;52.122;5.420;2023-04-06T07:57:34;101695.34;;;6.03;65.62
71770;BME280;66386;52.122;5.420;2023-04-06T08:00:02;101694.47;;;6.07;65.92
71770;BME280;66386;52.122;5.420;2023-04-06T08:02:31;101694.44;;;6.13;66.26
71770;BME280;66386;52.122;5.420;2023-04-06T08:04:58;101701.22;;;6.28;66.30
71770;BME280;66386;52.122;5.420;2023-04-06T08:07:24;101693.50;;;6.37;65.10
71770;BME280;66386;52.122;5.420;2023-04-06T08:09:51;101689.19;;;6.41;65.38
71770;BME280;66386;52.122;5.420;2023-04-06T08:12:18;101687.47;;;6.49;64.61
71770;BME280;66386;52.122;5.420;2023-04-06T08:14:44;101686.56;;;6.56;65.34
71770;BME280;66386;52.122;5.420;2023-04-06T08:17:11;101690.75;;;6.65;65.10
71770;BME280;66386;52.122;5.420;2023-04-06T08:19:38;101689.84;;;6.75;65.43
71770;BME280;66386;52.122;5.420;2023-04-06T08:22:04;101685.53;;;6.84;65.64
71770;BME280;66386;52.122;5.420;2023-04-06T08:24:30;101691.44;;;6.89;64.65
71770;BME280;66386;52.122;5.420;2023-04-06T08:26:58;101686.28;;;6.95;64.31
71770;BME280;66386;52.122;5.420;2023-04-06T08:29:25;101682.00;;;6.97;64.96
71770;BME280;66386;52.122;5.420;2023-04-06T08:31:51;101693.81;;;7.10;65.84
71770;BME280;66386;52.122;5.420;2023-04-06T08:34:18;101689.47;;;7.23;65.24
71770;BME280;66386;52.122;5.420;2023-04-06T08:36:44;101680.91;;;7.26;64.26
71770;BME280;66386;52.122;5.420;2023-04-06T08:39:15;101680.06;;;7.25;64.58
71770;BME280;66386;52.122;5.420;2023-04-06T08:41:41;101681.69;;;7.32;64.72
71770;BME280;66386;52.122;5.420;2023-04-06T08:44:09;101676.59;;;7.31;64.08
71770;BME280;66386;52.122;5.420;2023-04-06T08:46:36;101678.19;;;7.41;65.13
71770;BME280;66386;52.122;5.420;2023-04-06T08:49:03;101682.38;;;7.50;64.93
71770;BME280;66386;52.122;5.420;2023-04-06T08:51:34;101682.25;;;7.59;64.60
71770;BME280;66386;52.122;5.420;2023-04-06T08:54:01;101678.88;;;7.59;63.01
71770;BME280;66386;52.122;5.420;2023-04-06T08:56:28;101683.91;;;7.63;64.35
71770;BME280;66386;52.122;5.420;2023-04-06T08:58:55;101684.72;;;7.70;64.16
71770;BME280;66386;52.122;5.420;2023-04-06T09:01:26;101686.28;;;7.82;63.78
71770;BME280;66386;52.122;5.420;2023-04-06T09:04:03;101685.34;;;7.91;63.65
71770;BME280;66386;52.122;5.420;2023-04-06T09:06:35;101680.09;;;8.00;63.08
71770;BME280;66386;52.122;5.420;2023-04-06T09:09:03;101684.25;;;8.07;63.14
71770;BME280;66386;52.122;5.420;2023-04-06T09:14:10;101686.44;;;8.36;62.85
71770;BME280;66386;52.122;5.420;2023-04-06T09:16:41;101692.28;;;8.48;62.40
71770;BME280;66386;52.122;5.420;2023-04-06T09:19:08;101692.25;;;8.49;62.41
71770;BME280;66386;52.122;5.420;2023-04-06T09:21:36;101693.00;;;8.59;61.70
71770;BME280;66386;52.122;5.420;2023-04-06T09:24:03;101684.41;;;8.62;62.09
71770;BME280;66386;52.122;5.420;2023-04-06T09:26:30;101681.78;;;8.66;61.74
71770;BME280;66386;52.122;5.420;2023-04-06T09:29:00;101681.66;;;8.74;62.29
71770;BME280;66386;52.122;5.420;2023-04-06T09:31:29;101686.63;;;8.85;62.75
71770;BME280;66386;52.122;5.420;2023-04-06T09:33:57;101680.66;;;8.83;61.85
71770;BME280;66386;52.122;5.420;2023-04-06T09:36:31;101690.03;;;8.85;61.48
71770;BME280;66386;52.122;5.420;2023-04-06T09:39:00;101681.59;;;8.77;61.82
71770;BME280;66386;52.122;5.420;2023-04-06T09:41:28;101680.81;;;8.73;61.24
71770;BME280;66386;52.122;5.420;2023-04-06T09:44:06;101677.41;;;8.71;61.87
71770;BME280;66386;52.122;5.420;2023-04-06T09:46:35;101684.09;;;8.80;61.83
71770;BME280;66386;52.122;5.420;2023-04-06T09:49:22;101687.28;;;8.96;62.76
71770;BME280;66386;52.122;5.420;2023-04-06T09:51:56;101689.72;;;9.05;62.81
71770;BME280;66386;52.122;5.420;2023-04-06T09:54:28;101686.06;;;9.19;62.47
71770;BME280;66386;52.122;5.420;2023-04-06T09:57:17;101687.38;;;9.40;63.05
71770;BME280;66386;52.122;5.420;2023-04-06T09:59:52;101685.47;;;9.51;62.95
71770;BME280;66386;52.122;5.420;2023-04-06T10:02:35;101691.41;;;9.53;63.39
71770;BME280;66386;52.122;5.420;2023-04-06T10:05:15;101684.53;;;9.55;63.89
71770;BME280;66386;52.122;5.420;2023-04-06T10:07:44;101684.53;;;9.55;64.58
71770;BME280;66386;52.122;5.420;2023-04-06T10:10:25;101688.63;;;9.66;64.98
71770;BME280;66386;52.122;5.420;2023-04-06T10:12:53;101683.41;;;9.69;64.46
71770;BME280;66386;52.122;5.420;2023-04-06T10:15:21;101694.53;;;9.69;64.59
71770;BME280;66386;52.122;5.420;2023-04-06T10:17:48;101694.47;;;9.72;65.01
71770;BME280;66386;52.122;5.420;2023-04-06T10:20:20;101693.47;;;9.79;65.90
71770;BME280;66386;52.122;5.420;2023-04-06T10:25:27;101697.94;;;9.71;66.36
71770;BME280;66386;52.122;5.420;2023-04-06T10:28:07;101694.44;;;9.75;66.61
71770;BME280;66386;52.122;5.420;2023-04-06T10:30:41;101695.97;;;9.83;66.03
71770;BME280;66386;52.122;5.420;2023-04-06T10:33:20;101682.53;;;9.71;67.30
71770;BME280;66386;52.122;5.420;2023-04-06T10:35:47;101685.09;;;9.71;67.68
71770;BME280;66386;52.122;5.420;2023-04-06T10:38:13;101687.72;;;9.68;69.07
71770;BME280;66386;52.122;5.420;2023-04-06T10:40:44;101681.09;;;9.55;69.57
71770;BME280;66386;52.122;5.420;2023-04-06T10:43:12;101685.59;;;9.45;71.02
71770;BME280;66386;52.122;5.420;2023-04-06T10:45:40;101679.91;;;9.28;71.94
71770;BME280;66386;52.122;5.420;2023-04-06T10:48:17;101680.88;;;9.22;73.30
71770;BME280;66386;52.122;5.420;2023-04-06T10:50:46;101690.34;;;9.17;74.19
71770;BME280;66386;52.122;5.420;2023-04-06T10:53:21;101683.50;;;9.19;74.53
71770;BME280;66386;52.122;5.420;2023-04-06T10:55:50;101692.00;;;9.21;75.08
71770;BME280;66386;52.122;5.420;2023-04-06T11:35:44;101657.63;;;8.80;80.83
71770;BME280;66386;52.122;5.420;2023-04-06T11:38:12;101656.81;;;8.79;81.61
71770;BME280;66386;52.122;5.420;2023-04-06T11:40:38;101649.16;;;8.74;80.34
71770;BME280;66386;52.122;5.420;2023-04-06T11:43:05;101652.63;;;8.73;81.11
71770;BME280;66386;52.122;5.420;2023-04-06T11:45:42;101650.06;;;8.73;81.20
71770;BME280;66386;52.122;5.420;2023-04-06T11:48:18;101647.38;;;8.80;81.13
71770;BME280;66386;52.122;5.420;2023-04-06T11:50:46;101642.34;;;8.75;80.70
71770;BME280;66386;52.122;5.420;2023-04-06T11:53:12;101639.06;;;8.65;79.85
71770;BME280;66386;52.122;5.420;2023-04-06T11:55:39;101636.47;;;8.68;81.12
71770;BME280;66386;52.122;5.420;2023-04-06T11:58:06;101635.31;;;8.86;81.70
71770;BME280;66386;52.122;5.420;2023-04-06T12:00:33;101628.53;;;8.84;80.05
71770;BME280;66386;52.122;5.420;2023-04-06T12:03:01;101633.59;;;8.87;81.19
71770;BME280;66386;52.122;5.420;2023-04-06T12:05:27;101639.38;;;9.00;81.74
71770;BME280;66386;52.122;5.420;2023-04-06T12:07:54;101632.50;;;9.00;81.62
71770;BME280;66386;52.122;5.420;2023-04-06T12:10:21;101627.47;;;8.96;81.06
71770;BME280;66386;52.122;5.420;2023-04-06T12:12:48;101618.00;;;8.99;81.56
71770;BME280;66386;52.122;5.420;2023-04-06T12:15:14;101629.94;;;9.00;82.01
71770;BME280;66386;52.122;5.420;2023-04-06T12:17:41;101626.69;;;8.90;81.32
71770;BME280;66386;52.122;5.420;2023-04-06T12:20:08;101623.47;;;8.81;81.30
71770;BME280;66386;52.122;5.420;2023-04-06T12:22:50;101615.75;;;8.82;81.01
71770;BME280;66386;52.122;5.420;2023-04-06T12:25:17;101613.97;;;8.84;81.81
71770;BME280;66386;52.122;5.420;2023-04-06T12:27:43;101608.72;;;8.92;81.40
71770;BME280;66386;52.122;5.420;2023-04-06T12:30:10;101616.50;;;8.87;81.50
71770;BME280;66386;52.122;5.420;2023-04-06T12:32:37;101613.16;;;8.84;82.11
71770;BME280;66386;52.122;5.420;2023-04-06T12:35:04;101611.50;;;8.80;81.95
71770;BME280;66386;52.122;5.420;2023-04-06T12:37:30;101610.72;;;8.76;82.41
71770;BME280;66386;52.122;5.420;2023-04-06T12:39:56;101610.75;;;8.73;82.24
71770;BME280;66386;52.122;5.420;2023-04-06T12:42:23;101612.56;;;8.68;81.94
71770;BME280;66386;52.122;5.420;2023-04-06T12:44:49;101615.19;;;8.63;82.51
71770;BME280;66386;52.122;5.420;2023-04-06T12:47:16;101610.13;;;8.60;81.97
71770;BME280;66386;52.122;5.420;2023-04-06T12:49:43;101609.34;;;8.55;82.80
71770;BME280;66386;52.122;5.420;2023-04-06T12:52:10;101609.25;;;8.60;83.27
71770;BME280;66386;52.122;5.420;2023-04-06T12:54:36;101604.03;;;8.66;83.81
71770;BME280;66386;52.122;5.420;2023-04-06T12:57:03;101597.09;;;8.72;83.23
71770;BME280;66386;52.122;5.420;2023-04-06T12:59:29;101587.69;;;8.73;82.31
71770;BME280;66386;52.122;5.420;2023-04-06T13:02:00;101593.78;;;8.67;82.88
71770;BME280;66386;52.122;5.420;2023-04-06T13:04:27;101589.38;;;8.74;83.01
71770;BME280;66386;52.122;5.420;2023-04-06T13:06:53;101583.31;;;8.80;83.42
71770;BME280;66386;52.122;5.420;2023-04-06T13:09:20;101580.59;;;8.87;83.38
71770;BME280;66386;52.122;5.420;2023-04-06T13:11:47;101584.81;;;8.91;83.47
71770;BME280;66386;52.122;5.420;2023-04-06T13:14:13;101581.31;;;8.96;83.72
71770;BME280;66386;52.122;5.420;2023-04-06T13:16:40;101580.56;;;8.89;83.17
71770;BME280;66386;52.122;5.420;2023-04-06T13:19:06;101585.81;;;8.83;83.14
71770;BME280;66386;52.122;5.420;2023-04-06T13:21:33;101577.41;;;8.76;83.30
71770;BME280;66386;52.122;5.420;2023-04-06T13:23:59;101576.59;;;8.72;83.45
71770;BME280;66386;52.122;5.420;2023-04-06T13:26:28;101577.72;;;8.58;83.35
71770;BME280;66386;52.122;5.420;2023-04-06T13:28:55;101575.31;;;8.44;84.02
71770;BME280;66386;52.122;5.420;2023-04-06T13:31:22;101574.44;;;8.48;84.49
71770;BME280;66386;52.122;5.420;2023-04-06T13:33:49;101573.63;;;8.46;84.47
71770;BME280;66386;52.122;5.420;2023-04-06T13:36:15;101571.03;;;8.47;84.74
71770;BME280;66386;52.122;5.420;2023-04-06T13:38:43;101566.81;;;8.43;84.86
71770;BME280;66386;52.122;5.420;2023-04-06T13:41:17;101571.13;;;8.39;85.03
71770;BME280;66386;52.122;5.420;2023-04-06T13:43:44;101567.75;;;8.37;85.19